createdAt,value
2019-01-31T00:00:39.245Z,80.25
2019-01-31T00:01:39.361Z,80.19
2019-01-31T00:02:39.008Z,80.14
2019-01-31T00:03:39.771Z,80.24
2019-01-31T00:04:39.380Z,80.24
2019-01-31T00:05:39.020Z,80.28
2019-01-31T00:06:39.381Z,80.14
2019-01-31T00:07:39.019Z,80.22
2019-01-31T00:08:46.528Z,80.1
2019-01-31T00:09:39.099Z,80.19
2019-01-31T00:10:39.026Z,80.27
2019-01-31T00:11:38.942Z,80.48
2019-01-31T00:12:38.949Z,80.66
2019-01-31T00:13:38.928Z,80.64
2019-01-31T00:14:38.884Z,80.51
2019-01-31T00:15:38.866Z,80.5
2019-01-31T00:16:39.240Z,80.58
2019-01-31T00:17:39.441Z,80.48
2019-01-31T00:18:38.997Z,80.37
2019-01-31T00:19:39.152Z,80.43
2019-01-31T00:20:38.901Z,80.54
2019-01-31T00:21:39.147Z,80.71
2019-01-31T00:22:39.186Z,80.71
2019-01-31T00:23:38.884Z,80.53
2019-01-31T00:24:38.870Z,80.53
2019-01-31T00:25:38.883Z,80.49
2019-01-31T00:26:38.968Z,80.38
2019-01-31T00:27:39.001Z,80.48
2019-01-31T00:28:38.880Z,80.68
2019-01-31T00:29:38.866Z,80.53
2019-01-31T00:30:39.235Z,80.35
2019-01-31T00:31:38.895Z,80.37
2019-01-31T00:32:38.908Z,80.34
2019-01-31T00:33:38.946Z,80.31
2019-01-31T00:34:39.196Z,80.14
2019-01-31T00:35:38.857Z,80.01
2019-01-31T00:36:38.954Z,79.85
2019-01-31T00:37:39.183Z,79.82
2019-01-31T00:38:39.715Z,79.95
2019-01-31T00:39:39.193Z,79.93
2019-01-31T00:40:38.849Z,79.92
2019-01-31T00:41:39.092Z,79.93
2019-01-31T00:42:39.202Z,79.88
2019-01-31T00:43:38.961Z,79.78
2019-01-31T00:44:39.123Z,79.74
2019-01-31T00:45:39.263Z,79.59
2019-01-31T00:46:38.933Z,79.61
2019-01-31T00:47:38.966Z,79.67
2019-01-31T00:48:38.817Z,79.59
2019-01-31T00:49:39.259Z,79.54
2019-01-31T00:50:38.975Z,79.47
2019-01-31T00:51:38.804Z,79.27
2019-01-31T00:52:40.644Z,79.21
2019-01-31T00:53:39.187Z,79.15
2019-01-31T00:54:38.816Z,79.29
2019-01-31T00:55:39.114Z,79.24
2019-01-31T00:56:39.251Z,79.31
2019-01-31T00:57:39.113Z,79.19
2019-01-31T00:58:38.830Z,79.08
2019-01-31T00:59:38.827Z,79.03
2019-01-31T01:00:38.805Z,78.96
2019-01-31T01:01:39.047Z,78.97
2019-01-31T01:02:39.160Z,79.37
2019-01-31T01:03:39.200Z,79.31
2019-01-31T01:04:39.160Z,79.67
2019-01-31T01:05:38.840Z,79.54
2019-01-31T01:06:38.888Z,79.59
2019-01-31T01:07:39.089Z,79.35
2019-01-31T01:08:39.195Z,79.51
2019-01-31T01:09:38.868Z,79.69
2019-01-31T01:10:38.993Z,79.91
2019-01-31T01:11:39.130Z,79.83
2019-01-31T01:12:39.056Z,79.68
2019-01-31T01:13:39.033Z,79.49
2019-01-31T01:14:38.929Z,79.35
2019-01-31T01:15:38.833Z,78.87
2019-01-31T01:16:38.805Z,78.91
2019-01-31T01:17:38.922Z,79
2019-01-31T01:18:38.766Z,79.01
2019-01-31T01:19:38.839Z,79.16
2019-01-31T01:20:38.903Z,79.24
2019-01-31T01:21:39.182Z,78.78
2019-01-31T01:22:38.846Z,78.8
2019-01-31T01:23:38.800Z,78.82
2019-01-31T01:24:38.795Z,78.69
2019-01-31T01:25:39.118Z,78.8
2019-01-31T01:26:38.793Z,78.8
2019-01-31T01:27:38.747Z,78.89
2019-01-31T01:28:39.020Z,78.93
2019-01-31T01:29:38.813Z,78.76
2019-01-31T01:30:38.761Z,78.76
2019-01-31T01:31:39.135Z,78.93
2019-01-31T01:32:38.988Z,78.87
2019-01-31T01:33:39.152Z,78.84
2019-01-31T01:34:38.798Z,78.3
2019-01-31T01:35:39.060Z,78.48
2019-01-31T01:36:40.644Z,78.66
2019-01-31T01:37:38.968Z,78.67
2019-01-31T01:38:40.599Z,78.91
2019-01-31T01:39:38.870Z,78.75
2019-01-31T01:40:38.841Z,78.75
2019-01-31T01:41:40.585Z,78.76
2019-01-31T01:42:39.314Z,78.53
2019-01-31T01:43:39.449Z,78.57
2019-01-31T01:44:38.806Z,78.75
2019-01-31T01:45:39.159Z,78.7
2019-01-31T01:46:38.828Z,78.47
2019-01-31T01:47:38.730Z,78.3
2019-01-31T01:48:39.051Z,78.52
2019-01-31T01:49:38.829Z,78.25
2019-01-31T01:50:38.852Z,78.45
2019-01-31T01:51:39.146Z,78.62
2019-01-31T01:52:38.817Z,78.64
2019-01-31T01:53:39.102Z,78.74
2019-01-31T01:54:38.770Z,78.83
2019-01-31T01:55:38.813Z,78.63
2019-01-31T01:56:38.737Z,78.69
2019-01-31T01:57:39.024Z,78.65
2019-01-31T01:58:38.776Z,78.61
2019-01-31T01:59:38.839Z,78.46
2019-01-31T02:00:38.724Z,78.41
2019-01-31T02:01:38.704Z,78.63
2019-01-31T02:02:38.737Z,78.35
2019-01-31T02:03:38.731Z,78.47
2019-01-31T02:04:38.763Z,78.61
2019-01-31T02:05:38.794Z,78.34
2019-01-31T02:06:38.716Z,78.52
2019-01-31T02:07:38.999Z,78.37
2019-01-31T02:08:38.877Z,78.33
2019-01-31T02:09:39.097Z,78.4
2019-01-31T02:10:38.899Z,78.55
2019-01-31T02:11:38.726Z,78.39
2019-01-31T02:12:39.087Z,78.42
2019-01-31T02:13:39.147Z,78.35
2019-01-31T02:14:39.003Z,78.46
2019-01-31T02:15:38.710Z,78.42
2019-01-31T02:16:38.837Z,78.51
2019-01-31T02:17:39.075Z,78.48
2019-01-31T02:18:38.774Z,78.55
2019-01-31T02:19:38.840Z,78.72
2019-01-31T02:20:38.847Z,78.63
2019-01-31T02:21:38.798Z,78.75
2019-01-31T02:22:39.381Z,78.78
2019-01-31T02:23:39.095Z,78.91
2019-01-31T02:24:38.696Z,78.87
2019-01-31T02:25:38.882Z,78.88
2019-01-31T02:26:39.037Z,78.78
2019-01-31T02:27:38.660Z,78.71
2019-01-31T02:28:38.820Z,78.68
2019-01-31T02:29:38.987Z,78.76
2019-01-31T02:30:39.557Z,78.89
2019-01-31T02:31:38.797Z,79.06
2019-01-31T02:32:38.795Z,78.83
2019-01-31T02:33:39.074Z,78.84
2019-01-31T02:34:39.625Z,78.82
2019-01-31T02:35:38.766Z,79.07
2019-01-31T02:36:39.140Z,78.86
2019-01-31T02:37:40.474Z,78.87
2019-01-31T02:38:38.995Z,78.71
2019-01-31T02:39:43.704Z,78.84
2019-01-31T02:40:38.857Z,78.79
2019-01-31T02:41:39.574Z,78.71
2019-01-31T02:42:38.759Z,78.73
2019-01-31T02:43:38.647Z,78.92
2019-01-31T02:44:38.963Z,78.87
2019-01-31T02:45:38.862Z,79.05
2019-01-31T02:46:38.757Z,79.04
2019-01-31T02:47:38.824Z,79.09
2019-01-31T02:48:39.533Z,79.23
2019-01-31T02:49:38.677Z,79.21
2019-01-31T02:50:38.849Z,79.15
2019-01-31T02:51:38.700Z,79.2
2019-01-31T02:52:38.705Z,78.95
2019-01-31T02:53:39.688Z,78.92
2019-01-31T02:54:38.799Z,78.82
2019-01-31T02:55:38.809Z,78.94
2019-01-31T02:56:38.833Z,79.03
2019-01-31T02:57:39.367Z,79.06
2019-01-31T02:58:38.611Z,79.14
2019-01-31T02:59:38.989Z,79.23
2019-01-31T03:00:38.754Z,79.41
2019-01-31T03:01:38.635Z,79.25
2019-01-31T03:02:38.636Z,79.22
2019-01-31T03:03:38.725Z,79.33
2019-01-31T03:04:38.622Z,79.41
2019-01-31T03:05:38.626Z,79.43
2019-01-31T03:06:38.662Z,79.28
2019-01-31T03:07:39.484Z,79.28
2019-01-31T03:08:38.573Z,79.42
2019-01-31T03:09:38.694Z,79.21
2019-01-31T03:10:39.661Z,79.21
2019-01-31T03:11:38.845Z,79.21
2019-01-31T03:12:39.088Z,79.27
2019-01-31T03:13:38.657Z,79.15
2019-01-31T03:14:40.458Z,79.15
2019-01-31T03:15:38.689Z,79.13
2019-01-31T03:16:40.460Z,79.32
2019-01-31T03:17:38.870Z,79.11
2019-01-31T03:18:38.622Z,79.2
2019-01-31T03:19:38.779Z,79.3
2019-01-31T03:20:38.583Z,79.24
2019-01-31T03:21:39.310Z,79.14
2019-01-31T03:22:39.075Z,79.06
2019-01-31T03:23:38.677Z,78.86
2019-01-31T03:24:39.152Z,78.59
2019-01-31T03:25:38.875Z,78.65
2019-01-31T03:26:38.833Z,78.52
2019-01-31T03:27:39.038Z,78.44
2019-01-31T03:28:38.727Z,78.61
2019-01-31T03:29:38.904Z,78.56
2019-01-31T03:30:38.624Z,78.64
2019-01-31T03:31:38.618Z,78.64
2019-01-31T03:32:38.902Z,78.49
2019-01-31T03:33:38.718Z,78.3
2019-01-31T03:34:38.892Z,78.1
2019-01-31T03:35:39.276Z,77.97
2019-01-31T03:36:38.903Z,78.14
2019-01-31T03:37:38.624Z,78.1
2019-01-31T03:38:38.750Z,78.01
2019-01-31T03:39:38.662Z,77.72
2019-01-31T03:40:38.605Z,78.05
2019-01-31T03:41:38.596Z,78.07
2019-01-31T03:42:38.631Z,78.09
2019-01-31T03:43:38.592Z,77.73
2019-01-31T03:44:38.699Z,77.87
2019-01-31T03:45:38.606Z,77.64
2019-01-31T03:46:38.586Z,77.67
2019-01-31T03:47:38.588Z,77.61
2019-01-31T03:48:38.718Z,77.75
2019-01-31T03:49:38.583Z,77.76
2019-01-31T03:50:38.690Z,77.83
2019-01-31T03:51:38.643Z,77.78
2019-01-31T03:52:38.625Z,77.75
2019-01-31T03:53:38.570Z,77.78
2019-01-31T03:54:38.636Z,77.69
2019-01-31T03:55:38.545Z,77.68
2019-01-31T03:56:38.544Z,77.53
2019-01-31T03:57:38.611Z,77.63
2019-01-31T03:58:39.050Z,77.38
2019-01-31T03:59:39.088Z,77.25
2019-01-31T04:00:40.242Z,77.29
2019-01-31T04:01:38.534Z,77.25
2019-01-31T04:02:38.537Z,77.48
2019-01-31T04:03:38.593Z,77.4
2019-01-31T04:04:39.815Z,77.58
2019-01-31T04:05:38.913Z,77.67
2019-01-31T04:06:38.739Z,77.67
2019-01-31T04:07:38.531Z,77.69
2019-01-31T04:08:38.635Z,77.83
2019-01-31T04:09:39.448Z,77.92
2019-01-31T04:10:38.684Z,77.87
2019-01-31T04:11:38.668Z,78
2019-01-31T04:12:38.583Z,78.18
2019-01-31T04:13:38.636Z,78.39
2019-01-31T04:14:38.710Z,78.3
2019-01-31T04:15:38.762Z,78.32
2019-01-31T04:16:39.507Z,78.4
2019-01-31T04:17:38.829Z,78.19
2019-01-31T04:18:38.699Z,78.26
2019-01-31T04:19:39.293Z,78.14
2019-01-31T04:20:39.025Z,78.08
2019-01-31T04:21:38.842Z,78.23
2019-01-31T04:22:38.511Z,78.13
2019-01-31T04:23:38.691Z,78.05
2019-01-31T04:24:38.552Z,77.81
2019-01-31T04:25:38.706Z,77.8
2019-01-31T04:26:38.502Z,77.91
2019-01-31T04:27:38.837Z,77.91
2019-01-31T04:28:38.832Z,78.01
2019-01-31T04:29:38.589Z,77.92
2019-01-31T04:30:38.870Z,77.97
2019-01-31T04:31:38.612Z,78.2
2019-01-31T04:32:38.632Z,78.23
2019-01-31T04:33:38.733Z,78.04
2019-01-31T04:34:38.696Z,78.08
2019-01-31T04:35:38.748Z,78.24
2019-01-31T04:36:38.814Z,78.39
2019-01-31T04:37:38.581Z,78.36
2019-01-31T04:38:38.719Z,78.08
2019-01-31T04:39:38.465Z,78.33
2019-01-31T04:40:40.332Z,78.23
2019-01-31T04:41:39.187Z,78.41
2019-01-31T04:42:38.679Z,78.3
2019-01-31T04:43:38.683Z,78.35
2019-01-31T04:44:38.733Z,78.58
2019-01-31T04:45:38.596Z,78.48
2019-01-31T04:46:38.785Z,78.43
2019-01-31T04:47:38.585Z,78.53
2019-01-31T04:48:38.788Z,78.64
2019-01-31T04:49:38.542Z,78.59
2019-01-31T04:50:38.532Z,78.45
2019-01-31T04:51:38.950Z,78.47
2019-01-31T04:52:38.510Z,78.56
2019-01-31T04:53:39.367Z,78.44
2019-01-31T04:54:38.727Z,78.18
2019-01-31T04:55:38.524Z,78.38
2019-01-31T04:56:38.628Z,78.2
2019-01-31T04:57:38.640Z,78.19
2019-01-31T04:58:38.628Z,77.97
2019-01-31T04:59:38.522Z,77.99
2019-01-31T05:00:38.709Z,78.01
2019-01-31T05:01:38.587Z,77.74
2019-01-31T05:02:40.228Z,77.56
2019-01-31T05:03:38.626Z,77.3
2019-01-31T05:04:38.493Z,77.29
2019-01-31T05:05:38.615Z,77.16
2019-01-31T05:06:38.813Z,77.26
2019-01-31T05:07:38.680Z,77.12
2019-01-31T05:08:38.453Z,76.96
2019-01-31T05:09:38.531Z,77.11
2019-01-31T05:10:43.669Z,77.04
2019-01-31T05:11:38.660Z,76.91
2019-01-31T05:12:38.441Z,76.9
2019-01-31T05:13:38.498Z,76.67
2019-01-31T05:14:38.593Z,76.75
2019-01-31T05:15:38.462Z,76.35
2019-01-31T05:16:39.609Z,76.09
2019-01-31T05:17:38.613Z,76
2019-01-31T05:18:38.527Z,76.05
2019-01-31T05:19:38.602Z,76.09
2019-01-31T05:20:38.574Z,75.69
2019-01-31T05:21:38.469Z,75.66
2019-01-31T05:22:38.478Z,75.78
2019-01-31T05:23:38.553Z,75.69
2019-01-31T05:24:38.462Z,75.74
2019-01-31T05:25:38.423Z,75.83
2019-01-31T05:26:38.558Z,75.48
2019-01-31T05:27:38.544Z,75.38
2019-01-31T05:28:38.496Z,75.07
2019-01-31T05:29:38.658Z,75.14
2019-01-31T05:30:38.467Z,75.12
2019-01-31T05:31:38.422Z,75.07
2019-01-31T05:32:38.495Z,75.29
2019-01-31T05:33:38.420Z,75.46
2019-01-31T05:34:38.535Z,75.05
2019-01-31T05:35:38.486Z,74.72
2019-01-31T05:36:38.652Z,75.08
2019-01-31T05:37:38.791Z,75.01
2019-01-31T05:38:38.491Z,74.9
2019-01-31T05:39:38.494Z,75.05
2019-01-31T05:40:38.442Z,75.14
2019-01-31T05:41:40.255Z,75.39
2019-01-31T05:42:38.666Z,75.25
2019-01-31T05:43:38.806Z,75.62
2019-01-31T05:44:38.398Z,75.58
2019-01-31T05:45:38.359Z,75.66
2019-01-31T05:46:38.643Z,75.78
2019-01-31T05:47:39.117Z,76.25
2019-01-31T05:48:38.634Z,75.35
2019-01-31T05:49:38.408Z,75.25
2019-01-31T05:50:38.421Z,75.23
2019-01-31T05:51:39.632Z,75.81
2019-01-31T05:52:38.358Z,75.29
2019-01-31T05:53:38.417Z,75.13
2019-01-31T05:54:38.641Z,75.26
2019-01-31T05:55:38.647Z,75.31
2019-01-31T05:56:38.381Z,75.43
2019-01-31T05:57:40.265Z,75.5
2019-01-31T05:58:38.455Z,75.36
2019-01-31T05:59:38.301Z,75.46
2019-01-31T06:00:38.442Z,75.64
2019-01-31T06:01:38.466Z,75.73
2019-01-31T06:02:38.434Z,75.57
2019-01-31T06:03:38.500Z,75.74
2019-01-31T06:04:38.930Z,75.93
2019-01-31T06:05:39.234Z,76.01
2019-01-31T06:06:38.432Z,76.07
2019-01-31T06:07:39.842Z,76.11
2019-01-31T06:08:38.440Z,76.31
2019-01-31T06:09:38.319Z,76.24
2019-01-31T06:10:38.408Z,76.26
2019-01-31T06:11:39.208Z,76.19
2019-01-31T06:12:38.473Z,76.22
2019-01-31T06:13:38.491Z,76.28
2019-01-31T06:14:38.543Z,76.38
2019-01-31T06:15:38.433Z,76.35
2019-01-31T06:16:38.446Z,76.4
2019-01-31T06:17:38.348Z,76.27
2019-01-31T06:18:38.489Z,76.45
2019-01-31T06:19:38.428Z,76.37
2019-01-31T06:20:38.728Z,76.46
2019-01-31T06:21:38.622Z,76.51
2019-01-31T06:22:38.449Z,76.58
2019-01-31T06:23:38.616Z,76.74
2019-01-31T06:24:38.427Z,76.86
2019-01-31T06:25:38.395Z,76.89
2019-01-31T06:26:38.397Z,76.83
2019-01-31T06:27:38.337Z,77.05
2019-01-31T06:28:38.334Z,77.39
2019-01-31T06:29:38.864Z,77.65
2019-01-31T06:30:38.990Z,77.83
2019-01-31T06:31:38.605Z,78.15
2019-01-31T06:32:38.784Z,78.74
2019-01-31T06:33:38.459Z,79
2019-01-31T06:34:38.594Z,79.46
2019-01-31T06:35:38.973Z,79.9
2019-01-31T06:36:38.475Z,80.46
2019-01-31T06:37:38.336Z,80.96
2019-01-31T06:38:39.558Z,80.85
2019-01-31T06:39:38.370Z,81.22
2019-01-31T06:40:38.644Z,81.41
2019-01-31T06:41:39.864Z,81.49
2019-01-31T06:42:38.306Z,81.71
2019-01-31T06:43:38.555Z,81.66
2019-01-31T06:44:38.349Z,81.98
2019-01-31T06:45:38.286Z,82.09
2019-01-31T06:46:38.311Z,82.21
2019-01-31T06:47:38.353Z,82.11
2019-01-31T06:48:38.305Z,82.29
2019-01-31T06:49:38.412Z,82.55
2019-01-31T06:50:38.615Z,82.45
2019-01-31T06:51:38.276Z,82.71
2019-01-31T06:52:38.345Z,83.03
2019-01-31T06:53:38.452Z,82.88
2019-01-31T06:54:39.280Z,82.69
2019-01-31T06:55:38.786Z,82.92
2019-01-31T06:56:38.560Z,83.2
2019-01-31T06:57:38.392Z,83.39
2019-01-31T06:58:41.423Z,83.2
2019-01-31T06:59:39.000Z,83.14
2019-01-31T07:00:38.366Z,83.39
2019-01-31T07:01:38.871Z,83.62
2019-01-31T07:02:39.225Z,83.79
2019-01-31T07:03:39.177Z,83.74
2019-01-31T07:04:38.638Z,84.66
2019-01-31T07:05:38.629Z,84.96
2019-01-31T07:06:38.331Z,84.68
2019-01-31T07:07:38.344Z,84.67
2019-01-31T07:08:38.291Z,85.06
2019-01-31T07:09:38.318Z,85.2
2019-01-31T07:10:38.239Z,85.51
2019-01-31T07:11:38.225Z,85.7
2019-01-31T07:12:38.328Z,85.63
2019-01-31T07:13:38.272Z,86.16
2019-01-31T07:14:38.316Z,85.91
2019-01-31T07:15:38.359Z,86.27
2019-01-31T07:16:38.270Z,86.05
2019-01-31T07:17:38.551Z,86.1
2019-01-31T07:18:38.319Z,86.13
2019-01-31T07:19:38.221Z,86.21
2019-01-31T07:20:38.324Z,86.09
2019-01-31T07:21:38.360Z,86.4
2019-01-31T07:22:38.218Z,86.4
2019-01-31T07:23:38.316Z,86.2
2019-01-31T07:24:38.327Z,86.7
2019-01-31T07:25:38.356Z,86.93
2019-01-31T07:26:41.072Z,86.97
2019-01-31T07:27:38.374Z,87.15
2019-01-31T07:28:38.307Z,86.8
2019-01-31T07:29:38.474Z,87.26
2019-01-31T07:30:38.315Z,87.52
2019-01-31T07:31:38.485Z,87.36
2019-01-31T07:32:38.711Z,86.78
2019-01-31T07:33:38.646Z,87.27
2019-01-31T07:34:38.748Z,87.65
2019-01-31T07:35:40.032Z,87.42
2019-01-31T07:36:38.543Z,87.7
2019-01-31T07:37:38.261Z,87.78
2019-01-31T07:38:38.309Z,87.87
2019-01-31T07:39:38.234Z,87.65
2019-01-31T07:40:38.284Z,87.52
2019-01-31T07:41:41.967Z,87.3
2019-01-31T07:42:38.351Z,87.36
2019-01-31T07:43:39.033Z,87.81
2019-01-31T07:44:38.230Z,87.85
2019-01-31T07:45:38.720Z,87.79
2019-01-31T07:46:38.274Z,87.95
2019-01-31T07:47:38.274Z,87.94
2019-01-31T07:48:39.000Z,88.04
2019-01-31T07:49:38.369Z,88.11
2019-01-31T07:50:38.728Z,87.84
2019-01-31T07:51:38.315Z,88.49
2019-01-31T07:52:38.768Z,88.37
2019-01-31T07:53:38.830Z,88.16
2019-01-31T07:54:38.414Z,88.22
2019-01-31T07:55:38.222Z,88.68
2019-01-31T07:56:38.578Z,88.48
2019-01-31T07:57:38.421Z,88.73
2019-01-31T07:58:38.416Z,88.47
2019-01-31T07:59:38.266Z,88.36
2019-01-31T08:00:38.362Z,88.15
2019-01-31T08:01:41.161Z,88.63
2019-01-31T08:02:38.505Z,88.13
2019-01-31T08:03:41.012Z,88.33
2019-01-31T08:04:38.533Z,88.52
2019-01-31T08:05:38.146Z,88.68
2019-01-31T08:06:38.245Z,88.85
2019-01-31T08:07:38.811Z,89.09
2019-01-31T08:08:38.341Z,88.84
2019-01-31T08:09:38.567Z,88.74
2019-01-31T08:10:39.309Z,88.7
2019-01-31T08:11:38.571Z,88.43
2019-01-31T08:12:38.688Z,88.51
2019-01-31T08:13:38.803Z,88.62
2019-01-31T08:14:38.606Z,88.59
2019-01-31T08:15:40.011Z,88.5
2019-01-31T08:16:38.301Z,88.37
2019-01-31T08:17:38.362Z,88.32
2019-01-31T08:18:38.519Z,88.7
2019-01-31T08:19:38.610Z,88.85
2019-01-31T08:20:38.272Z,88.9
2019-01-31T08:21:41.404Z,88.97
2019-01-31T08:22:38.168Z,89.16
2019-01-31T08:23:38.836Z,89.1
2019-01-31T08:24:43.169Z,88.94
2019-01-31T08:25:38.393Z,88.83
2019-01-31T08:26:39.015Z,88.77
2019-01-31T08:27:38.127Z,89.1
2019-01-31T08:28:38.183Z,89.05
2019-01-31T08:29:38.234Z,89.03
2019-01-31T08:30:38.145Z,89.02
2019-01-31T08:31:39.099Z,89.01
2019-01-31T08:32:38.550Z,89.08
2019-01-31T08:33:38.431Z,89.21
2019-01-31T08:34:38.223Z,89.07
2019-01-31T08:35:38.305Z,88.93
2019-01-31T08:36:38.572Z,88.68
2019-01-31T08:37:38.105Z,88.67
2019-01-31T08:38:38.369Z,88.59
2019-01-31T08:39:38.257Z,88.59
2019-01-31T08:40:39.935Z,88.8
2019-01-31T08:41:38.582Z,88.64
2019-01-31T08:42:38.229Z,88.37
2019-01-31T08:43:38.214Z,88.5
2019-01-31T08:44:38.274Z,88.42
2019-01-31T08:45:38.145Z,88.67
2019-01-31T08:46:38.105Z,88.89
2019-01-31T08:47:38.433Z,88.66
2019-01-31T08:48:38.167Z,88.51
2019-01-31T08:49:38.089Z,88.36
2019-01-31T08:50:38.548Z,88.48
2019-01-31T08:51:39.103Z,88.66
2019-01-31T08:52:41.682Z,88.91
2019-01-31T08:53:39.513Z,88.72
2019-01-31T08:54:38.254Z,88.82
2019-01-31T08:55:38.604Z,88.98
2019-01-31T08:56:38.411Z,89.14
2019-01-31T08:57:38.077Z,88.92
2019-01-31T08:58:38.124Z,88.95
2019-01-31T08:59:38.519Z,89.01
2019-01-31T09:00:38.119Z,88.76
2019-01-31T09:01:38.142Z,88.73
2019-01-31T09:02:38.296Z,88.89
2019-01-31T09:03:38.414Z,88.89
2019-01-31T09:04:38.145Z,88.74
2019-01-31T09:05:38.139Z,88.73
2019-01-31T09:06:38.141Z,88.76
2019-01-31T09:07:38.092Z,88.55
2019-01-31T09:08:38.185Z,88.69
2019-01-31T09:09:38.446Z,88.74
2019-01-31T09:10:40.126Z,88.63
2019-01-31T09:11:38.855Z,88.67
2019-01-31T09:12:38.086Z,88.58
2019-01-31T09:13:38.517Z,88.57
2019-01-31T09:14:38.152Z,88.47
2019-01-31T09:15:38.106Z,88.43
2019-01-31T09:16:38.274Z,88.41
2019-01-31T09:17:38.215Z,88.49
2019-01-31T09:18:38.426Z,88.2
2019-01-31T09:19:38.343Z,88.14
2019-01-31T09:20:38.073Z,88.27
2019-01-31T09:21:38.701Z,88.18
2019-01-31T09:22:38.223Z,88.18
2019-01-31T09:23:38.571Z,88
2019-01-31T09:24:38.313Z,88.09
2019-01-31T09:25:38.974Z,87.97
2019-01-31T09:26:38.545Z,87.95
2019-01-31T09:27:38.568Z,87.95
2019-01-31T09:28:38.038Z,87.76
2019-01-31T09:29:38.663Z,87.69
2019-01-31T09:30:38.105Z,87.64
2019-01-31T09:31:38.280Z,87.8
2019-01-31T09:32:38.069Z,87.77
2019-01-31T09:33:38.332Z,87.85
2019-01-31T09:34:38.395Z,87.91
2019-01-31T09:35:38.412Z,87.78
2019-01-31T09:36:38.102Z,87.78
2019-01-31T09:37:38.523Z,87.66
2019-01-31T09:38:38.655Z,87.75
2019-01-31T09:39:38.239Z,87.68
2019-01-31T09:40:38.163Z,87.54
2019-01-31T09:41:38.274Z,87.55
2019-01-31T09:42:38.278Z,87.72
2019-01-31T09:43:38.311Z,87.68
2019-01-31T09:44:38.094Z,87.55
2019-01-31T09:45:39.003Z,87.6
2019-01-31T09:46:38.256Z,87.67
2019-01-31T09:47:38.850Z,87.69
2019-01-31T09:48:37.943Z,87.71
2019-01-31T09:49:38.144Z,87.32
2019-01-31T09:50:38.126Z,87.29
2019-01-31T09:51:38.347Z,87.33
2019-01-31T09:52:38.294Z,87.33
2019-01-31T09:53:37.987Z,87.15
2019-01-31T09:54:38.699Z,87.24
2019-01-31T09:55:38.291Z,87.13
2019-01-31T09:56:38.450Z,86.97
2019-01-31T09:57:38.132Z,87.24
2019-01-31T09:58:38.315Z,87.11
2019-01-31T09:59:38.050Z,87.21
2019-01-31T10:00:38.340Z,87.08
2019-01-31T10:01:38.086Z,87.21
2019-01-31T10:02:37.987Z,86.97
2019-01-31T10:03:38.236Z,86.79
2019-01-31T10:04:38.171Z,86.78
2019-01-31T10:05:38.228Z,86.78
2019-01-31T10:06:38.134Z,86.65
2019-01-31T10:07:38.329Z,86.58
2019-01-31T10:08:38.404Z,86.68
2019-01-31T10:09:38.694Z,86.51
2019-01-31T10:10:40.767Z,86.46
2019-01-31T10:11:38.667Z,86.41
2019-01-31T10:12:39.606Z,86.44
2019-01-31T10:13:38.361Z,86.37
2019-01-31T10:14:39.769Z,86.32
2019-01-31T10:15:38.473Z,86.13
2019-01-31T10:16:40.003Z,86.2
2019-01-31T10:17:38.345Z,86.13
2019-01-31T10:18:38.374Z,86.24
2019-01-31T10:19:38.168Z,86.3
2019-01-31T10:20:38.427Z,86.11
2019-01-31T10:21:38.534Z,86.17
2019-01-31T10:22:39.049Z,86.09
2019-01-31T10:23:39.488Z,86.05
2019-01-31T10:24:38.283Z,86.2
2019-01-31T10:25:37.788Z,86.11
2019-01-31T10:26:38.044Z,85.92
2019-01-31T10:27:38.070Z,85.77
2019-01-31T10:30:41.097Z,85.43
2019-01-31T10:31:41.535Z,85.35
2019-01-31T10:32:38.336Z,85.4
2019-01-31T10:33:37.931Z,85.29
2019-01-31T10:34:38.210Z,85.29
2019-01-31T10:35:40.123Z,85.29
2019-01-31T10:36:38.820Z,84.67
2019-01-31T10:37:37.929Z,84.13
2019-01-31T10:38:38.286Z,83.56
2019-01-31T10:39:48.460Z,83.07
2019-01-31T10:40:38.787Z,83.07
2019-01-31T10:41:37.489Z,83.04
2019-01-31T10:42:52.457Z,82.66
2019-01-31T10:43:38.200Z,82.55
2019-01-31T10:44:38.481Z,82.3
2019-01-31T10:45:38.596Z,82.16
2019-01-31T10:46:41.011Z,82.41
2019-01-31T10:47:40.798Z,81.72
2019-01-31T10:48:38.337Z,81.54
2019-01-31T10:49:38.009Z,81.76
2019-01-31T10:50:59.161Z,81.26
2019-01-31T10:51:38.032Z,81.23
2019-01-31T10:52:38.131Z,81.24
2019-01-31T10:53:38.434Z,80.32
2019-01-31T10:54:38.750Z,79.64
2019-01-31T10:55:38.082Z,79.98
2019-01-31T10:56:38.057Z,79.89
2019-01-31T10:57:38.205Z,80.08
2019-01-31T10:58:38.387Z,79.71
2019-01-31T10:59:38.103Z,79.42
2019-01-31T11:00:38.165Z,79.1
2019-01-31T11:01:38.078Z,79.16
2019-01-31T11:02:38.102Z,79.68
2019-01-31T11:03:38.108Z,79.78
2019-01-31T11:04:38.064Z,80.25
2019-01-31T11:05:38.248Z,80.16
2019-01-31T11:06:38.235Z,80.92
2019-01-31T11:07:38.007Z,80.71
2019-01-31T11:08:38.078Z,80.46
2019-01-31T11:09:38.071Z,79.77
2019-01-31T11:10:38.063Z,80.27
2019-01-31T11:11:37.911Z,79.82
2019-01-31T11:12:37.953Z,80.01
2019-01-31T11:13:40.252Z,80.03
2019-01-31T11:14:37.884Z,79.41
2019-01-31T11:15:38.094Z,80.01
2019-01-31T11:16:38.221Z,79.88
2019-01-31T11:17:37.927Z,79.35
2019-01-31T11:18:37.913Z,78.98
2019-01-31T11:19:37.860Z,79.58
2019-01-31T11:20:37.974Z,79.8
2019-01-31T11:21:37.951Z,79.55
2019-01-31T11:22:37.856Z,79.56
2019-01-31T11:23:37.930Z,80.13
2019-01-31T11:24:37.843Z,80.16
2019-01-31T11:25:38.367Z,80.21
2019-01-31T11:26:38.143Z,80.23
2019-01-31T11:27:37.872Z,80.41
2019-01-31T11:28:37.980Z,80.41
2019-01-31T11:29:37.880Z,80.28
2019-01-31T11:30:38.036Z,80.42
2019-01-31T11:31:39.689Z,80.93
2019-01-31T11:32:38.852Z,81.15
2019-01-31T11:33:38.032Z,81.29
2019-01-31T11:34:38.153Z,81.42
2019-01-31T11:35:38.538Z,81.66
2019-01-31T11:36:38.757Z,81.56
2019-01-31T11:37:37.912Z,81.75
2019-01-31T11:38:38.094Z,81.43
2019-01-31T11:39:38.053Z,81.73
2019-01-31T11:40:39.128Z,81.69
2019-01-31T11:41:37.978Z,81.42
2019-01-31T11:42:38.076Z,81.46
2019-01-31T11:43:38.748Z,81.56
2019-01-31T11:44:38.305Z,81.64
2019-01-31T11:45:38.089Z,81.23
2019-01-31T11:46:37.857Z,81.14
2019-01-31T11:47:39.666Z,81.22
2019-01-31T11:48:38.140Z,81.54
2019-01-31T11:49:38.174Z,81.39
2019-01-31T11:50:37.868Z,81.47
2019-01-31T11:51:37.809Z,81.34
2019-01-31T11:52:38.158Z,81.54
2019-01-31T11:53:38.033Z,81.53
2019-01-31T11:54:37.812Z,81.54
2019-01-31T11:55:38.375Z,81.52
2019-01-31T11:56:37.848Z,81.13
2019-01-31T11:57:37.852Z,81.06
2019-01-31T11:58:39.445Z,81.1
2019-01-31T11:59:37.921Z,81.01
2019-01-31T12:00:39.228Z,81.06
2019-01-31T12:01:38.134Z,81.31
2019-01-31T12:02:38.109Z,81.3
2019-01-31T12:03:37.964Z,81.41
2019-01-31T12:04:37.825Z,81.56
2019-01-31T12:05:37.884Z,81.72
2019-01-31T12:06:37.897Z,81.75
2019-01-31T12:07:38.112Z,82.1
2019-01-31T12:08:37.834Z,82.09
2019-01-31T12:09:37.817Z,81.96
2019-01-31T12:10:37.855Z,81.47
2019-01-31T12:11:37.855Z,81.18
2019-01-31T12:12:37.597Z,81.18
2019-01-31T12:13:38.697Z,81.19
2019-01-31T12:14:38.285Z,81.33
2019-01-31T12:15:39.625Z,81.69
2019-01-31T12:16:39.672Z,82.89
2019-01-31T12:17:38.427Z,82.2
2019-01-31T12:18:38.009Z,82.1
2019-01-31T12:19:37.874Z,82.03
2019-01-31T12:20:38.124Z,82.11
2019-01-31T12:21:38.797Z,81.92
2019-01-31T12:22:37.921Z,81.83
2019-01-31T12:23:38.259Z,82.18
2019-01-31T12:24:37.989Z,82.37
2019-01-31T12:25:37.881Z,82.8
2019-01-31T12:26:37.827Z,83.1
2019-01-31T12:27:37.791Z,82.83
2019-01-31T12:28:38.396Z,82.61
2019-01-31T12:29:37.758Z,82.44
2019-01-31T12:30:38.036Z,82.59
2019-01-31T12:31:37.790Z,82.4
2019-01-31T12:32:38.106Z,82.58
2019-01-31T12:33:37.878Z,82.64
2019-01-31T12:34:38.432Z,82.66
2019-01-31T12:35:38.140Z,82.69
2019-01-31T12:36:37.829Z,82.55
2019-01-31T12:37:37.829Z,82.59
2019-01-31T12:38:37.798Z,82.66
2019-01-31T12:39:38.315Z,82.48
2019-01-31T12:40:38.209Z,82.06
2019-01-31T12:41:38.075Z,82.11
2019-01-31T12:42:37.861Z,82.58
2019-01-31T12:43:38.097Z,82.39
2019-01-31T12:44:37.786Z,81.68
2019-01-31T12:45:38.315Z,82.12
2019-01-31T12:46:37.765Z,81.34
2019-01-31T12:47:37.889Z,80.51
2019-01-31T12:48:37.860Z,80.69
2019-01-31T12:49:37.857Z,80.41
2019-01-31T12:50:37.739Z,80.64
2019-01-31T12:51:37.769Z,80.54
2019-01-31T12:52:37.752Z,80.64
2019-01-31T12:53:37.836Z,80.72
2019-01-31T12:54:37.750Z,81.24
2019-01-31T12:55:37.818Z,81.15
2019-01-31T12:56:37.885Z,80.79
2019-01-31T12:57:37.757Z,81.1